首页
METAR-TAF:

METAR-TAF

机场 :

Hurlburt Field

Mary Esther, 佛罗里达州, 美国

纬度: 30-25N, 经度: 086-41W, 海拔: 12米

当前天气观测

该预报发布于45分钟前的22:56 UTC
风速9节,风向东南
温度 24°C
湿度 89%
气压 1015 hPa
能見度: 16.1公里
少量云层高于400英尺
散云层高于2800英尺
多云层高于5500英尺
阴天层高于8500英尺

METAR: KHRT 032256Z 14009KT 10SM FEW004 SCT028 BKN055 OVC085 24/22 A2996 RMK AO2A RAE46DZB46E53 SLP147 P0000 T02390221 $

时间: 18:41 (23:41 UTC)

预报

该预报发布于1小时和58分钟前的21:43 UTC
预报有效从03日的 21点(UTC)到 04日的 24点(UTC)
风速10节,风向
能見度: 8000
多云层高于1500英尺
多云层高于10000英尺, 积雨云.
阴天层高于25000英尺
阵雨, 附近有雷暴
短暂存在
从 03日的 21点(UTC)到 03日的 23点(UTC)
能見度: 8000
多云层高于2000英尺, 积雨云.
雷暴, 雨
成为
从 03日的 22点(UTC)到 03日的 23点(UTC)
风速8节,风向
能见度10公里或以上
散云层高于1500英尺
多云层高于25000英尺
成为
从 04日的 05点(UTC)到 04日的 06点(UTC)
风速6节,风向北转东北
能见度10公里或以上
少量云层高于2000英尺

TAF: KHRT 032143Z 0321/0424 18010KT 8000 SHRA VCTS BKN015 BKN100CB OVC250 QNH2994INS TEMPO 0321/0323 8000 TSRA BKN020CB BECMG 0322/0323 17008KT 9999 NSW SCT015 BKN250 QNH2995INS BECMG 0405/0406 03006KT 9999 FEW020 QNH2998INS TX28/0321Z TN23/0412Z

超过4000个机场的气象观测和天气预报(METAR&TAF报告)。

可查询的气象台以黄色和红色小点在地图上表示。

将鼠标移到小点上方,可查看气象台名称。

然后点击查看天气观测和预报。

如需切换地图:点击带黑十字的绿色按钮放大地图;点击带横线的绿色按钮缩小地图;或者点击绿色箭头查看邻近地区的地图。


METAR-TAF: